createdAt,value
2023-02-24T00:02:36.361Z,5.37
2023-02-24T00:06:42.147Z,5.40
2023-02-24T00:10:44.829Z,5.42
2023-02-24T00:14:47.283Z,5.41
2023-02-24T00:18:49.618Z,5.41
2023-02-24T00:22:51.800Z,5.40
2023-02-24T00:26:56.525Z,5.05
2023-02-24T00:31:24.748Z,5.09
2023-02-24T00:35:27.204Z,5.22
2023-02-24T00:39:32.982Z,5.22
2023-02-24T00:43:37.568Z,4.83
2023-02-24T00:47:40.211Z,4.76
2023-02-24T00:51:44.246Z,4.66
2023-02-24T00:55:46.385Z,4.35
2023-02-24T00:59:51.403Z,4.54
2023-02-24T01:03:56.814Z,4.85
2023-02-24T01:07:59.409Z,5.09
2023-02-24T01:12:20.102Z,5.30
2023-02-24T01:16:22.920Z,5.49
2023-02-24T01:20:24.997Z,5.64
2023-02-24T01:24:29.090Z,5.74
2023-02-24T01:28:31.397Z,5.74
2023-02-24T01:32:34.157Z,5.69
2023-02-24T01:36:38.713Z,5.67
2023-02-24T01:40:41.002Z,5.61
2023-02-24T01:44:43.796Z,5.87
2023-02-24T01:48:46.159Z,5.69
2023-02-24T01:52:51.520Z,5.71
2023-02-24T01:56:56.221Z,5.89
2023-02-24T02:00:58.285Z,6.18
2023-02-24T02:05:11.591Z,6.23
2023-02-24T02:09:20.638Z,6.37
2023-02-24T02:13:30.530Z,6.39
2023-02-24T02:17:56.753Z,6.51
2023-02-24T02:21:58.762Z,6.50
2023-02-24T02:26:40.545Z,6.50
2023-02-24T02:31:02.090Z,6.59
2023-02-24T02:35:49.928Z,6.67
2023-02-24T02:40:22.604Z,6.73
2023-02-24T02:44:45.078Z,6.86
2023-02-24T02:48:55.576Z,6.89
2023-02-24T02:53:32.087Z,6.89
2023-02-24T02:57:37.977Z,6.93
2023-02-24T03:01:43.876Z,6.96
2023-02-24T03:05:57.396Z,6.97
2023-02-24T03:10:12.745Z,7.06
2023-02-24T03:14:19.873Z,7.16
2023-02-24T03:18:30.028Z,7.15
2023-02-24T03:22:41.156Z,7.13
2023-02-24T03:26:52.418Z,7.20
2023-02-24T03:31:23.642Z,7.35
2023-02-24T03:35:30.827Z,7.41
2023-02-24T03:39:32.949Z,7.44
2023-02-24T03:43:50.266Z,7.33
2023-02-24T03:47:56.118Z,7.42
2023-02-24T03:52:29.334Z,7.40
2023-02-24T03:56:46.357Z,7.46
2023-02-24T04:01:13.350Z,7.45
2023-02-24T04:05:21.943Z,7.45
2023-02-24T04:09:43.791Z,7.49
2023-02-24T04:13:59.737Z,7.45
2023-02-24T04:18:13.936Z,7.59
2023-02-24T04:22:24.675Z,7.65
2023-02-24T04:26:30.275Z,7.71
2023-02-24T04:30:36.574Z,7.75
2023-02-24T04:34:41.648Z,7.73
2023-02-24T04:38:45.997Z,7.68
2023-02-24T04:42:51.962Z,7.71
2023-02-24T04:46:54.376Z,7.76
2023-02-24T04:50:56.386Z,7.79
2023-02-24T04:55:00.496Z,7.85
2023-02-24T04:59:03.781Z,7.90
2023-02-24T05:03:06.360Z,7.94
2023-02-24T05:07:08.439Z,7.94
2023-02-24T05:11:18.670Z,7.76
2023-02-24T05:15:22.189Z,7.59
2023-02-24T05:19:43.104Z,7.50
2023-02-24T05:23:46.913Z,7.16
2023-02-24T05:27:49.103Z,7.12
2023-02-24T05:31:51.302Z,7.03
2023-02-24T05:35:53.906Z,7.04
2023-02-24T05:39:56.923Z,7.05
2023-02-24T05:44:02.531Z,7.12
2023-02-24T05:48:05.935Z,7.05
2023-02-24T05:52:09.656Z,7.15
2023-02-24T05:56:11.891Z,7.29
2023-02-24T06:00:16.434Z,7.47
2023-02-24T06:04:23.912Z,7.68
2023-02-24T06:08:26.309Z,7.68
2023-02-24T06:12:30.467Z,7.79
2023-02-24T06:16:33.854Z,7.91
2023-02-24T06:20:36.081Z,8.00
2023-02-24T06:24:39.464Z,8.10
2023-02-24T06:28:44.897Z,8.14
2023-02-24T06:32:47.241Z,8.22
2023-02-24T06:36:49.800Z,8.21
2023-02-24T06:40:52.715Z,8.16
2023-02-24T06:44:55.269Z,8.25
2023-02-24T06:48:58.182Z,8.28
2023-02-24T06:53:01.031Z,8.32
2023-02-24T06:57:04.258Z,8.41
2023-02-24T07:01:13.835Z,8.54
2023-02-24T07:05:17.170Z,8.08
2023-02-24T07:09:22.377Z,8.31
2023-02-24T07:13:25.732Z,8.43
2023-02-24T07:17:34.024Z,8.62
2023-02-24T07:21:39.865Z,8.73
2023-02-24T07:25:43.595Z,8.73
2023-02-24T07:29:45.894Z,8.87
2023-02-24T07:33:53.473Z,8.78
2023-02-24T07:38:01.888Z,8.47
2023-02-24T07:42:05.253Z,8.13
2023-02-24T07:46:25.979Z,8.40
2023-02-24T07:50:32.956Z,8.66
2023-02-24T07:54:35.435Z,8.58
2023-02-24T07:58:37.933Z,8.84
2023-02-24T08:02:40.416Z,9.12
2023-02-24T08:06:48.113Z,8.91
2023-02-24T08:10:50.463Z,9.03
2023-02-24T08:14:53.569Z,9.08
2023-02-24T08:18:57.909Z,9.45
2023-02-24T08:22:59.972Z,9.81
2023-02-24T08:27:07.868Z,10.19
2023-02-24T08:31:12.788Z,10.43
2023-02-24T08:35:23.301Z,10.61
2023-02-24T08:39:30.269Z,10.68
2023-02-24T08:43:39.229Z,10.71
2023-02-24T08:47:45.535Z,10.72
2023-02-24T08:51:49.520Z,10.72
2023-02-24T08:55:51.937Z,10.74
2023-02-24T08:59:57.895Z,10.79
2023-02-24T09:04:02.365Z,10.84
2023-02-24T09:08:04.864Z,10.78
2023-02-24T09:12:08.050Z,10.95
2023-02-24T09:16:16.654Z,11.11
2023-02-24T09:20:27.642Z,11.33
2023-02-24T09:24:32.492Z,11.57
2023-02-24T09:28:48.641Z,11.66
2023-02-24T09:32:50.907Z,11.63
2023-02-24T09:37:03.249Z,11.77
2023-02-24T09:41:32.024Z,12.04
2023-02-24T09:45:34.782Z,12.24
2023-02-24T09:49:48.206Z,12.35
2023-02-24T09:53:53.525Z,12.43
2023-02-24T09:58:34.873Z,12.46
2023-02-24T10:03:00.219Z,12.41
2023-02-24T10:07:14.091Z,12.37
2023-02-24T10:11:16.970Z,12.25
2023-02-24T10:15:44.831Z,12.34
2023-02-24T10:19:56.475Z,12.21
2023-02-24T10:24:15.650Z,12.32
2023-02-24T10:28:53.100Z,12.41
2023-02-24T10:32:59.013Z,12.21
2023-02-24T10:37:27.563Z,12.42
2023-02-24T10:41:30.850Z,12.31
2023-02-24T10:45:45.701Z,11.95
2023-02-24T10:49:58.969Z,11.69
2023-02-24T10:54:44.940Z,11.91
2023-02-24T10:58:53.186Z,11.89
2023-02-24T11:03:08.420Z,12.01
2023-02-24T11:07:24.886Z,12.05
2023-02-24T11:11:54.122Z,12.14
2023-02-24T11:16:14.823Z,12.18
2023-02-24T11:20:48.407Z,12.06
2023-02-24T11:24:52.875Z,12.24
2023-02-24T11:29:32.699Z,12.24
2023-02-24T11:33:47.441Z,12.16
2023-02-24T11:38:17.797Z,12.20
2023-02-24T11:42:31.320Z,12.35
2023-02-24T11:46:42.099Z,12.22
2023-02-24T11:51:16.702Z,12.33
2023-02-24T11:55:42.578Z,12.51
2023-02-24T11:59:51.587Z,12.46
2023-02-24T12:03:59.901Z,12.30
2023-02-24T12:08:34.770Z,12.34
2023-02-24T12:13:04.214Z,12.02
2023-02-24T12:17:26.375Z,11.89
2023-02-24T12:21:42.149Z,12.04
2023-02-24T12:26:29.116Z,12.04
2023-02-24T12:30:49.149Z,12.36
2023-02-24T12:34:52.131Z,12.43
2023-02-24T12:39:15.997Z,12.43
2023-02-24T12:43:45.247Z,12.32
2023-02-24T12:47:53.381Z,12.39
2023-02-24T12:52:13.544Z,12.48
2023-02-24T12:56:25.164Z,12.43
2023-02-24T13:00:45.672Z,12.43
2023-02-24T13:05:10.251Z,12.49
2023-02-24T13:09:24.245Z,12.30
2023-02-24T13:13:41.599Z,11.97
2023-02-24T13:17:48.687Z,11.71
2023-02-24T13:22:12.655Z,11.61
2023-02-24T13:26:23.090Z,11.68
2023-02-24T13:30:29.720Z,11.67
2023-02-24T13:34:43.466Z,11.64
2023-02-24T13:38:47.682Z,11.57
2023-02-24T13:43:00.599Z,11.54
2023-02-24T13:47:24.284Z,11.63
2023-02-24T13:51:48.455Z,11.65
2023-02-24T13:56:17.332Z,11.61
2023-02-24T14:00:22.467Z,11.68
2023-02-24T14:04:29.531Z,11.83
2023-02-24T14:08:45.875Z,11.77
2023-02-24T14:12:49.890Z,11.74
2023-02-24T14:16:51.994Z,11.72
2023-02-24T14:20:56.505Z,11.62
2023-02-24T14:25:02.351Z,11.80
2023-02-24T14:29:08.883Z,11.91
2023-02-24T14:33:26.121Z,11.96
2023-02-24T14:37:31.068Z,12.10
2023-02-24T14:41:33.185Z,11.87
2023-02-24T14:45:50.812Z,11.79
2023-02-24T14:50:02.566Z,11.67
2023-02-24T14:54:16.366Z,11.49
2023-02-24T14:58:40.573Z,11.59
2023-02-24T15:02:48.228Z,11.52
2023-02-24T15:06:50.566Z,11.49
2023-02-24T15:10:53.392Z,11.33
2023-02-24T15:15:17.557Z,11.35
2023-02-24T15:19:38.974Z,11.48
2023-02-24T15:23:41.105Z,11.53
2023-02-24T15:27:58.472Z,11.35
2023-02-24T15:32:07.281Z,11.47
2023-02-24T15:36:22.573Z,11.53
2023-02-24T15:40:26.983Z,11.56
2023-02-24T15:44:34.278Z,11.49
2023-02-24T15:48:42.863Z,11.63
2023-02-24T15:52:45.131Z,11.66
2023-02-24T15:56:48.848Z,11.53
2023-02-24T16:00:52.673Z,11.48
2023-02-24T16:04:55.389Z,11.58
2023-02-24T16:08:58.357Z,11.70
2023-02-24T16:13:01.954Z,11.76
2023-02-24T16:17:08.945Z,11.75
2023-02-24T16:21:11.713Z,11.68
2023-02-24T16:25:16.974Z,11.64
2023-02-24T16:29:19.165Z,11.59
2023-02-24T16:33:23.711Z,11.58
2023-02-24T16:37:30.123Z,11.52
2023-02-24T16:41:32.456Z,11.40
2023-02-24T16:45:35.956Z,11.23
2023-02-24T16:49:38.506Z,11.13
2023-02-24T16:53:41.053Z,11.20
2023-02-24T16:57:43.186Z,11.16
2023-02-24T17:01:45.343Z,11.13
2023-02-24T17:05:47.893Z,10.89
2023-02-24T17:09:50.597Z,10.84
2023-02-24T17:13:52.809Z,10.68
2023-02-24T17:17:54.982Z,10.59
2023-02-24T17:21:57.259Z,10.40
2023-02-24T17:26:01.938Z,10.26
2023-02-24T17:30:04.376Z,10.29
2023-02-24T17:34:06.659Z,10.36
2023-02-24T17:38:13.569Z,10.23
2023-02-24T17:42:15.720Z,10.28
2023-02-24T17:46:18.115Z,10.24
2023-02-24T17:50:20.266Z,10.34
2023-02-24T17:54:22.700Z,10.44
2023-02-24T17:58:24.864Z,10.54
2023-02-24T18:02:27.237Z,10.55
2023-02-24T18:06:29.451Z,10.58
2023-02-24T18:10:31.584Z,10.61
2023-02-24T18:14:33.760Z,10.66
2023-02-24T18:18:35.895Z,10.55
2023-02-24T18:22:38.190Z,10.63
2023-02-24T18:26:40.421Z,10.70
2023-02-24T18:30:42.639Z,10.70
2023-02-24T18:34:44.839Z,10.76
2023-02-24T18:38:46.984Z,10.75
2023-02-24T18:42:50.300Z,10.79
2023-02-24T18:46:52.485Z,10.71
2023-02-24T18:50:55.956Z,10.64
2023-02-24T18:54:58.160Z,10.54
2023-02-24T18:59:01.298Z,10.47
2023-02-24T19:03:03.584Z,10.52
2023-02-24T19:07:07.442Z,10.52
2023-02-24T19:11:12.767Z,10.35
2023-02-24T19:15:15.377Z,9.88
2023-02-24T19:19:17.655Z,9.82
2023-02-24T19:23:20.028Z,9.67
2023-02-24T19:27:22.288Z,9.66
2023-02-24T19:31:27.875Z,9.61
2023-02-24T19:35:30.152Z,9.64
2023-02-24T19:39:32.758Z,9.57
2023-02-24T19:43:35.237Z,9.66
2023-02-24T19:47:38.117Z,9.68
2023-02-24T19:51:40.308Z,9.70
2023-02-24T19:55:48.372Z,9.71
2023-02-24T19:59:52.161Z,9.65
2023-02-24T20:03:57.131Z,9.70
2023-02-24T20:07:59.372Z,9.77
2023-02-24T20:12:02.434Z,9.99
2023-02-24T20:16:10.303Z,10.01
2023-02-24T20:20:13.356Z,9.88
2023-02-24T20:24:17.021Z,9.84
2023-02-24T20:28:21.318Z,9.86
2023-02-24T20:32:24.127Z,9.95
2023-02-24T20:36:28.301Z,9.91
2023-02-24T20:40:32.219Z,10.07
2023-02-24T20:44:34.575Z,10.18
2023-02-24T20:48:36.766Z,10.24
2023-02-24T20:52:40.113Z,10.21
2023-02-24T20:56:44.988Z,10.27
2023-02-24T21:00:47.147Z,10.10
2023-02-24T21:04:49.313Z,9.81
2023-02-24T21:08:53.507Z,9.79
2023-02-24T21:12:55.736Z,9.61
2023-02-24T21:16:57.906Z,9.55
2023-02-24T21:21:00.050Z,9.47
2023-02-24T21:25:02.226Z,9.56
2023-02-24T21:29:04.474Z,9.72
2023-02-24T21:33:06.727Z,9.84
2023-02-24T21:37:09.322Z,9.99
2023-02-24T21:41:15.006Z,10.13
2023-02-24T21:45:19.213Z,10.11
2023-02-24T21:49:23.878Z,10.03
2023-02-24T21:53:27.921Z,10.14
2023-02-24T21:57:31.042Z,10.09
2023-02-24T22:01:36.531Z,10.18
2023-02-24T22:05:38.705Z,10.17
2023-02-24T22:09:41.100Z,10.21
2023-02-24T22:13:45.193Z,10.12
2023-02-24T22:17:47.389Z,10.07
2023-02-24T22:21:49.569Z,9.81
2023-02-24T22:25:51.978Z,9.94
2023-02-24T22:29:55.270Z,10.00
2023-02-24T22:33:58.785Z,10.08
2023-02-24T22:38:01.921Z,9.84
2023-02-24T22:42:04.685Z,9.88
2023-02-24T22:46:15.927Z,10.05
2023-02-24T22:50:18.877Z,10.06
2023-02-24T22:54:21.290Z,9.82
2023-02-24T22:58:24.284Z,9.91
2023-02-24T23:02:26.438Z,10.07
2023-02-24T23:06:29.547Z,10.12
2023-02-24T23:10:33.326Z,10.17
2023-02-24T23:14:36.408Z,10.17
2023-02-24T23:18:38.658Z,10.22
2023-02-24T23:22:41.144Z,10.20
2023-02-24T23:26:46.506Z,10.20
2023-02-24T23:30:48.659Z,10.24
2023-02-24T23:34:50.797Z,10.27
2023-02-24T23:38:53.542Z,10.32
2023-02-24T23:42:55.669Z,10.29
2023-02-24T23:46:58.809Z,10.29
2023-02-24T23:51:12.901Z,10.34
2023-02-24T23:55:15.880Z,10.31
2023-02-24T23:59:18.115Z,10.31
